Flight Track Log - Related Links

Times and Time Zones

All times are in EDT time to prevent confusion due to time zone crossing. See the SWA1021 flight status page for this flight to view local times or setup timezone preferences in your user account.

Time Position Orientation Groundspeed Altitude Reporting Facility
EDT Latitude Longitude Course Direction KTS MPH feet Rate Location/Type
Sun 01:42:38 PM 39.1833 -76.7333 280° West 176 203 1,500  Level Potomac TRACON
Sun 01:44:38 PM 39.2025 -76.8744 280° West 215 247 5,400 2,387 Climbing Washington Center
Sun 01:45:39 PM 39.2119 -76.9686 277° West 244 281 8,700 2,797 Climbing Washington Center
Sun 01:46:36 PM 39.2128 -77.0703 271° West 267 307 10,900 2,339 Climbing Washington Center
Sun 01:47:37 PM 39.1864 -77.1822 253° West 295 339 13,300 2,508 Climbing Washington Center
Sun 01:48:38 PM 39.1042 -77.2500 213° Southwest 305 351 16,000 2,521 Climbing Washington Center
Sun 01:49:36 PM 39.0175 -77.3256 214° Southwest 349 402 18,300 2,288 Climbing Washington Center
Sun 01:50:36 PM 38.9825 -77.4503 250° West 362 417 20,500 2,213 Climbing Washington Center
Sun 01:51:38 PM 38.9569 -77.6044 258° West 375 432 22,800 1,869 Climbing Washington Center
Sun 01:52:38 PM 38.9339 -77.7319 257° West 396 456 24,300 1,475 Climbing Washington Center
Sun 01:53:36 PM 38.9106 -77.8778 258° West 412 474 25,700 1,462 Climbing Washington Center
Sun 01:54:37 PM 38.8800 -78.0503 257° West 437 503 27,200 1,279 Climbing Washington Center
Sun 01:55:38 PM 38.8558 -78.2067 259° West 443 510 28,300 1,240 Climbing Washington Center
Sun 01:56:38 PM 38.8522 -78.3692 268° West 448 516 29,700 1,576 Climbing Washington Center
Sun 01:57:36 PM 38.8503 -78.5317 269° West 454 522 31,400 1,729 Climbing Washington Center
Sun 01:58:36 PM 38.8486 -78.6889 269° West 459 528 33,100 1,300 Climbing Washington Center
Sun 01:59:36 PM 38.8464 -78.8489 269° West 454 522 34,000 446 Climbing Washington Center
Sun 02:00:37 PM 38.8442 -79.0086 269° West 454 522 34,000  Level Washington Center
Sun 02:01:37 PM 38.8394 -79.1683 268° West 454 522 34,000 397 Level Washington Center
Sun 02:02:38 PM 38.8181 -79.3219 260° West 454 522 34,800 1,008 Climbing Washington Center
Sun 02:03:36 PM 38.7922 -79.4750 258° West 448 516 36,000 605 Climbing Washington Center
Sun 02:04:37 PM 38.7664 -79.6308 258° West 448 516 36,000  Level Washington Center
Sun 02:05:38 PM 38.7383 -79.7811 257° West 448 516 36,000  Level Washington Center
Sun 02:06:36 PM 38.7125 -79.9178 256° West 448 516 36,000  Level Washington Center
Sun 02:07:37 PM 38.6839 -80.0706 257° West 448 516 36,000  Level Washington Center
Sun 02:08:37 PM 38.6553 -80.2203 256° West 443 510 36,000  Level Washington Center
Sun 02:09:38 PM 38.6261 -80.3833 257° West 443 510 36,000  Level Washington Center
Sun 02:11:06 PM 38.5867 -80.5739 255° West 430 495 36,000  Level Indianapolis Center
Sun 02:12:08 PM 38.5511 -80.7511 256° West 427 491 36,000  Level Indianapolis Center
Sun 02:13:10 PM 38.5131 -80.8931 251° West 423 487 36,000  Level Indianapolis Center
Sun 02:14:11 PM 38.4767 -81.0356 252° West 420 483 36,000  Level Indianapolis Center
Sun 02:15:13 PM 38.4394 -81.1769 251° West 419 482 36,000 194 Level Indianapolis Center
Sun 02:16:15 PM 38.4033 -81.3194 252° West 418 481 36,400 677 Climbing Indianapolis Center
Sun 02:17:17 PM 38.3656 -81.4611 251° West 418 481 37,400 780 Climbing Indianapolis Center
Sun 02:18:18 PM 38.3283 -81.6033 252° West 419 482 38,000 293 Climbing Indianapolis Center
Sun 02:19:20 PM 38.2906 -81.7450 251° West 419 482 38,000  Level Indianapolis Center
Sun 02:20:22 PM 38.2447 -81.8772 246° West 409 471 38,000  Level Indianapolis Center
Sun 02:21:24 PM 38.1933 -82.0064 243° Southwest 409 471 38,000  Level Indianapolis Center
Sun 02:22:26 PM 38.1414 -82.1672 248° West 411 473 38,000  Level Indianapolis Center
Sun 02:23:27 PM 38.1064 -82.3083 253° West 416 479 38,000  Level Indianapolis Center
Sun 02:24:29 PM 38.0722 -82.4408 252° West 408 470 38,000  Level Indianapolis Center
Sun 02:25:31 PM 38.0353 -82.5761 251° West 407 468 38,000  Level Indianapolis Center
Sun 02:26:33 PM 38.0000 -82.7111 252° West 403 464 38,000  Level Indianapolis Center
Sun 02:27:35 PM 37.9592 -82.8606 251° West 387 445 38,000  Level Indianapolis Center
Sun 02:28:37 PM 37.9250 -82.9911 252° West 387 445 38,000  Level Indianapolis Center
Sun 02:29:39 PM 37.8903 -83.1178 251° West 384 442 38,000  Level Indianapolis Center
Sun 02:30:41 PM 37.8553 -83.2469 251° West 388 447 38,000  Level Indianapolis Center
Sun 02:31:42 PM 37.8189 -83.3786 251° West 394 453 38,000  Level Indianapolis Center
Sun 02:32:44 PM 37.7775 -83.5308 251° West 394 453 38,000  Level Indianapolis Center
Sun 02:33:46 PM 37.7408 -83.6608 250° West 393 452 38,000  Level Indianapolis Center
Sun 02:34:48 PM 37.7036 -83.7944 251° West 400 460 38,000  Level Indianapolis Center
Sun 02:35:50 PM 37.6675 -83.9272 251° West 401 461 38,000  Level Indianapolis Center
Sun 02:36:52 PM 37.6306 -84.0619 251° West 405 466 38,000  Level Indianapolis Center
Sun 02:37:54 PM 37.5908 -84.1961 250° West 407 468 38,000  Level Indianapolis Center
Sun 02:38:56 PM 37.5472 -84.3525 251° West 406 467 38,000  Level Indianapolis Center
Sun 02:39:58 PM 37.5097 -84.4844 250° West 403 464 38,000  Level Indianapolis Center
Sun 02:41:00 PM 37.4700 -84.6186 250° West 408 470 38,000  Level Indianapolis Center
Sun 02:42:01 PM 37.4306 -84.7506 249° West 406 467 38,000  Level Indianapolis Center
Sun 02:43:04 PM 37.3753 -84.8764 241° Southwest 412 474 38,000  Level Indianapolis Center
Sun 02:44:05 PM 37.3114 -85.0233 241° Southwest 413 475 38,000  Level Indianapolis Center
Sun 02:45:07 PM 37.2569 -85.1506 242° Southwest 415 478 38,000  Level Indianapolis Center
Sun 02:46:10 PM 37.2022 -85.2767 241° Southwest 414 476 38,000  Level Indianapolis Center
Sun 02:47:12 PM 37.1489 -85.4033 242° Southwest 412 474 38,000  Level Indianapolis Center
Sun 02:48:14 PM 37.0944 -85.5267 241° Southwest 408 470 38,000  Level Indianapolis Center
Sun 02:49:16 PM 37.0378 -85.6547 241° Southwest 416 479 38,000  Level Indianapolis Center
Sun 02:50:18 PM 36.9722 -85.8044 241° Southwest 417 480 38,000  Level Indianapolis Center
Sun 02:51:20 PM 36.9156 -85.9344 241° Southwest 420 483 38,000  Level Indianapolis Center
Sun 02:52:22 PM 36.8589 -86.0631 241° Southwest 420 483 38,000  Level Indianapolis Center
Sun 02:53:24 PM 36.8008 -86.1919 241° Southwest 422 486 38,000  Level Indianapolis Center
Sun 02:54:26 PM 36.7444 -86.3186 241° Southwest 417 480 38,000  Level Indianapolis Center
Sun 02:55:27 PM 36.6889 -86.4472 242° Southwest 423 487 38,000  Level Memphis Center
Sun 02:56:27 PM 36.6322 -86.5714 240° Southwest 423 487 38,000  Level Memphis Center
Sun 02:57:27 PM 36.5756 -86.6981 241° Southwest 423 487 38,000  Level Memphis Center
Sun 02:58:27 PM 36.5211 -86.8272 242° Southwest 423 487 38,000  Level Memphis Center
Sun 02:59:27 PM 36.4642 -86.9586 242° Southwest 428 493 38,000  Level Memphis Center
Sun 03:00:27 PM 36.4031 -87.0903 240° Southwest 435 501 38,000  Level Memphis Center
Sun 03:01:27 PM 36.3417 -87.2136 238° Southwest 435 501 38,000  Level Memphis Center
Sun 03:02:27 PM 36.2844 -87.3394 241° Southwest 435 501 38,000  Level Memphis Center
Sun 03:03:27 PM 36.2250 -87.4678 240° Southwest 435 501 38,000  Level Memphis Center
Sun 03:04:27 PM 36.1572 -87.6089 239° Southwest 435 501 38,000  Level Memphis Center
Sun 03:05:27 PM 36.0975 -87.7394 241° Southwest 440 506 38,000  Level Memphis Center
Sun 03:06:27 PM 36.0375 -87.8672 240° Southwest 440 506 38,000  Level Memphis Center
Sun 03:07:27 PM 35.9797 -87.9972 241° Southwest 440 506 38,000  Level Memphis Center
Sun 03:08:27 PM 35.9175 -88.1297 240° Southwest 445 512 38,000  Level Memphis Center
Sun 03:09:27 PM 35.8589 -88.2364 236° Southwest 440 506 38,000  Level Memphis Center
Sun 03:10:27 PM 35.7922 -88.3633 237° Southwest 440 506 38,000  Level Memphis Center
Sun 03:11:27 PM 35.7211 -88.4878 235° Southwest 445 512 38,000  Level Memphis Center
Sun 03:12:27 PM 35.6522 -88.6172 237° Southwest 445 512 38,000  Level Memphis Center
Sun 03:13:27 PM 35.5828 -88.7411 235° Southwest 450 518 38,000  Level Memphis Center
Sun 03:14:27 PM 35.5097 -88.8828 238° Southwest 445 512 38,000  Level Memphis Center
Sun 03:15:27 PM 35.4400 -89.0064 235° Southwest 442 509 38,000  Level Memphis Center
Sun 03:16:27 PM 35.3725 -89.1297 236° Southwest 448 516 38,000  Level Memphis Center
Sun 03:17:27 PM 35.3028 -89.2553 236° Southwest 443 510 38,000  Level Memphis Center
Sun 03:18:27 PM 35.2203 -89.3708 229° Southwest 443 510 38,000  Level Memphis Center
Sun 03:19:27 PM 35.1419 -89.4861 230° Southwest 448 516 38,000  Level Memphis Center
Sun 03:20:27 PM 35.0717 -89.5858 229° Southwest 448 516 38,000  Level Memphis Center
Sun 03:21:27 PM 34.9953 -89.7006 231° Southwest 448 516 38,000  Level Memphis Center
Sun 03:22:27 PM 34.8914 -89.8306 226° Southwest 463 533 38,000  Level Memphis Center
Sun 03:23:27 PM 34.8106 -89.9600 233° Southwest 470 541 38,000  Level Memphis Center
Sun 03:24:27 PM 34.7253 -90.0717 227° Southwest 475 547 38,000  Level Memphis Center
Sun 03:25:27 PM 34.6422 -90.1881 229° Southwest 470 541 38,000  Level Memphis Center
Sun 03:26:27 PM 34.5567 -90.3042 228° Southwest 464 534 38,000  Level Memphis Center
Sun 03:27:27 PM 34.4794 -90.4100 229° Southwest 464 534 38,000  Level Memphis Center
Sun 03:28:27 PM 34.3981 -90.5258 230° Southwest 464 534 38,000  Level Memphis Center
Sun 03:29:27 PM 34.3122 -90.6414 228° Southwest 464 534 38,000  Level Memphis Center
Sun 03:30:27 PM 34.2283 -90.7567 229° Southwest 464 534 38,000  Level Memphis Center
Sun 03:31:27 PM 34.1425 -90.8742 229° Southwest 469 540 38,000  Level Memphis Center
Sun 03:32:27 PM 34.0542 -90.9914 228° Southwest 464 534 38,000  Level Memphis Center
Sun 03:33:27 PM 33.9617 -91.1211 229° Southwest 469 540 38,000  Level Memphis Center
Sun 03:34:27 PM 33.8733 -91.2378 228° Southwest 469 540 38,000  Level Memphis Center
Sun 03:35:27 PM 33.7953 -91.3394 227° Southwest 464 534 38,000  Level Memphis Center
Sun 03:36:27 PM 33.7089 -91.4558 228° Southwest 464 534 38,000  Level Memphis Center
Sun 03:37:27 PM 33.6222 -91.5719 228° Southwest 464 534 38,000  Level Memphis Center
Sun 03:39:53 PM 33.4119 -91.8619 229° Southwest 463 533 38,000  Level Fort Worth Center
Sun 03:40:53 PM 33.3231 -91.9744 227° Southwest 463 533 38,000  Level Fort Worth Center
Sun 03:41:53 PM 33.2383 -92.0889 229° Southwest 468 539 38,000  Level Fort Worth Center
Sun 03:42:53 PM 33.1492 -92.2058 228° Southwest 468 539 38,000  Level Fort Worth Center
Sun 03:43:53 PM 33.0642 -92.3175 228° Southwest 461 531 38,000  Level Fort Worth Center
Sun 03:44:53 PM 32.9686 -92.4342 226° Southwest 467 537 38,000  Level Fort Worth Center
Sun 03:45:53 PM 32.8833 -92.5478 228° Southwest 467 537 38,000  Level Fort Worth Center
Sun 03:46:53 PM 32.7897 -92.6642 226° Southwest 473 544 38,000  Level Fort Worth Center
Sun 03:47:53 PM 32.7022 -92.7797 228° Southwest 473 544 38,000  Level Fort Worth Center
Sun 03:48:53 PM 32.6103 -92.8956 227° Southwest 478 550 38,000  Level Fort Worth Center
Sun 03:49:53 PM 32.5186 -93.0158 228° Southwest 483 556 38,000  Level Fort Worth Center
Sun 03:50:53 PM 32.4286 -93.1286 227° Southwest 483 556 38,000  Level Fort Worth Center
Sun 03:51:53 PM 32.3364 -93.2458 227° Southwest 483 556 38,000  Level Fort Worth Center
Sun 03:52:53 PM 32.2483 -93.3556 227° Southwest 483 556 38,000  Level Fort Worth Center
Sun 03:53:53 PM 32.1761 -93.4497 228° Southwest 483 556 38,000  Level Fort Worth Center
Sun 03:54:53 PM 32.0781 -93.5839 229° Southwest 489 563 38,000  Level Fort Worth Center
Sun 03:55:53 PM 31.9875 -93.7003 227° Southwest 489 563 38,000  Level Fort Worth Center
Sun 03:56:46 PM 31.9142 -93.7853 225° Southwest 473 544 38,000  Level Houston Center
Sun 03:57:48 PM 31.8069 -93.9189 227° Southwest 472 543 38,000  Level Houston Center
Sun 03:58:50 PM 31.6922 -94.0036 212° Southwest 461 531 38,000  Level Houston Center
Sun 03:59:52 PM 31.5767 -94.0714 207° Southwest 461 531 38,000  Level Houston Center
Sun 04:00:54 PM 31.4636 -94.1358 206° Southwest 452 520 38,000  Level Houston Center
Sun 04:01:56 PM 31.3567 -94.2067 209° Southwest 442 509 38,000  Level Houston Center
Sun 04:02:58 PM 31.2683 -94.2997 222° Southwest 426 490 38,000  Level Houston Center
Sun 04:04:00 PM 31.1811 -94.3928 222° Southwest 421 484 38,000  Level Houston Center
Sun 04:05:02 PM 31.0950 -94.4878 223° Southwest 420 483 38,000  Level Houston Center
Sun 04:06:04 PM 31.0108 -94.5836 224° Southwest 416 479 38,000  Level Houston Center
Sun 04:07:06 PM 30.9278 -94.6822 226° Southwest 419 482 38,000  Level Houston Center
Sun 04:08:08 PM 30.8347 -94.8053 229° Southwest 419 482 38,000  Level Houston Center
Sun 04:09:10 PM 30.7561 -94.9103 229° Southwest 425 489 38,000  Level Houston Center
Sun 04:10:12 PM 30.6772 -95.0150 229° Southwest 428 493 38,000  Level Houston Center
Sun 04:11:14 PM 30.5986 -95.1197 229° Southwest 429 494 38,000  Level Houston Center
Sun 04:12:16 PM 30.5211 -95.2214 229° Southwest 423 487 38,000  Level Houston Center
Sun 04:13:18 PM 30.4436 -95.3250 229° Southwest 423 487 38,000  Level Houston Center
Sun 04:14:20 PM 30.3636 -95.4272 228° Southwest 416 479 38,000  Level Houston Center
Sun 04:15:22 PM 30.2900 -95.5317 231° Southwest 419 482 38,000  Level Houston Center
Sun 04:16:24 PM 30.2197 -95.6719 240° Southwest 424 488 38,000  Level Houston Center
Sun 04:17:26 PM 30.1611 -95.7883 240° Southwest 422 486 38,000  Level Houston Center
Sun 04:18:28 PM 30.1367 -95.9275 259° West 458 527 38,000  Level Houston Center
Sun 04:19:30 PM 30.1186 -96.0700 262° West 440 506 38,000  Level Houston Center
Sun 04:20:33 PM 30.1011 -96.2117 262° West 448 516 38,000  Level Houston Center
Sun 04:21:35 PM 30.0844 -96.3542 262° West 451 519 38,000 -145 Level Houston Center
Sun 04:22:37 PM 30.0683 -96.4947 262° West 447 514 37,700 -1,645 Descending Houston Center
Sun 04:23:39 PM 30.0475 -96.6619 262° West 444 511 34,600 -3,000 Descending Houston Center
Sun 04:24:41 PM 30.0308 -96.8044 262° West 449 517 31,500 -2,806 Descending Houston Center
Sun 04:25:43 PM 30.0133 -96.9472 262° West 453 521 28,800 -2,468 Descending Houston Center
Sun 04:26:45 PM 29.9956 -97.0922 262° West 458 527 26,400 -2,565 Descending Houston Center
Sun 04:27:47 PM 29.9742 -97.2636 262° West 453 521 23,500 -2,516 Descending Houston Center
Sun 04:28:49 PM 29.9567 -97.4006 262° West 439 505 21,200 -2,226 Descending Houston Center
Sun 04:29:51 PM 29.9394 -97.5333 262° West 429 494 18,900 -2,331 Descending Houston Center
Sun 04:30:50 PM 29.9219 -97.6681 262° West 404 465 16,500 -2,371 Descending Houston Center
Sun 04:31:55 PM 29.9053 -97.8033 262° West 397 457 14,000 -1,875 Descending Houston Center
Sun 04:32:58 PM 29.8703 -97.9128 250° West 366 421 12,500 -1,477 Descending Houston Center
Sun 04:34:05 PM 29.8217 -98.0231 243° Southwest 328 377 10,800 -1,306 Descending Houston Center
Sun 04:35:02 PM 29.7864 -98.1044 243° Southwest 310 357 9,800 -1,293 Descending Houston Center
Sun 04:36:01 PM 29.7558 -98.1928 248° West 296 341 8,300 -1,540 Descending Houston Center
Sun 04:36:55 PM 29.7211 -98.2692 242° Southwest 294 338 6,900 -1,140 Descending Houston Center
Sun 04:38:02 PM 29.6858 -98.3650 247° West 277 319 6,000 -800 Descending Houston Center
Sun 04:39:10 PM 29.6547 -98.4408 245° Southwest 247 284 5,100 -891 Descending Houston Center
Sun 04:40:10 PM 29.6639 -98.5142 278° West 228 262 4,100 -992 Descending Houston Center
Sun 04:41:11 PM 29.6189 -98.5508 215° Southwest 183 211 3,100 -1,031 Descending Houston Center
Sun 04:42:18 PM 29.5772 -98.5319 158° South 144 166 1,900 -945 Descending Houston Center
Sun 04:43:18 PM 29.5522 -98.4944 127° Southeast 148 170 1,100 -800 Descending Houston Center
Sun 04:45:00 PM 29.5340 -98.4691 221° Southwest  Level Estimated
Sun 04:52:00 PM 29.5333 -98.4667 16° North  Level FlightAware Approximate
Sun 04:53:00 PM 29.5340 -98.4691 16° North  Level Estimated

Login

Don't have an account? Register now (free) for customized features, flight alerts, and more!